sensor_id;sensor_type;location;lat;lon;timestamp;P1;durP1;ratioP1;P2;durP2;ratioP2
8293;SDS011;4185;41.506;24.938;2022-12-18T00:01:23;27.07;;;14.30;;
8293;SDS011;4185;41.506;24.938;2022-12-18T00:03:51;26.93;;;13.50;;
8293;SDS011;4185;41.506;24.938;2022-12-18T00:06:21;27.37;;;13.83;;
8293;SDS011;4185;41.506;24.938;2022-12-18T00:08:49;25.63;;;13.67;;
8293;SDS011;4185;41.506;24.938;2022-12-18T00:11:16;19.77;;;12.27;;
8293;SDS011;4185;41.506;24.938;2022-12-18T00:13:45;13.30;;;8.57;;
8293;SDS011;4185;41.506;24.938;2022-12-18T00:16:14;13.53;;;8.13;;
8293;SDS011;4185;41.506;24.938;2022-12-18T00:18:44;15.67;;;8.97;;
8293;SDS011;4185;41.506;24.938;2022-12-18T00:21:11;17.97;;;10.43;;
8293;SDS011;4185;41.506;24.938;2022-12-18T00:23:39;19.53;;;11.20;;
8293;SDS011;4185;41.506;24.938;2022-12-18T00:26:08;20.80;;;10.70;;
8293;SDS011;4185;41.506;24.938;2022-12-18T00:28:37;21.33;;;11.37;;
8293;SDS011;4185;41.506;24.938;2022-12-18T00:31:04;17.73;;;10.30;;
8293;SDS011;4185;41.506;24.938;2022-12-18T00:33:33;22.53;;;10.60;;
8293;SDS011;4185;41.506;24.938;2022-12-18T00:36:02;13.20;;;8.60;;
8293;SDS011;4185;41.506;24.938;2022-12-18T00:38:29;14.70;;;8.93;;
8293;SDS011;4185;41.506;24.938;2022-12-18T00:40:55;12.30;;;8.47;;
8293;SDS011;4185;41.506;24.938;2022-12-18T00:43:22;13.53;;;8.23;;
8293;SDS011;4185;41.506;24.938;2022-12-18T00:45:48;12.80;;;8.13;;
8293;SDS011;4185;41.506;24.938;2022-12-18T00:48:15;13.03;;;8.03;;
8293;SDS011;4185;41.506;24.938;2022-12-18T00:50:42;11.47;;;8.00;;
8293;SDS011;4185;41.506;24.938;2022-12-18T00:53:10;11.63;;;6.33;;
8293;SDS011;4185;41.506;24.938;2022-12-18T00:55:37;9.93;;;6.83;;
8293;SDS011;4185;41.506;24.938;2022-12-18T00:58:05;10.97;;;6.87;;
8293;SDS011;4185;41.506;24.938;2022-12-18T01:00:31;10.77;;;6.47;;
8293;SDS011;4185;41.506;24.938;2022-12-18T01:02:58;9.67;;;6.20;;
8293;SDS011;4185;41.506;24.938;2022-12-18T01:05:25;9.70;;;5.90;;
8293;SDS011;4185;41.506;24.938;2022-12-18T01:07:52;9.50;;;5.90;;
8293;SDS011;4185;41.506;24.938;2022-12-18T01:10:21;9.67;;;6.00;;
8293;SDS011;4185;41.506;24.938;2022-12-18T01:12:47;8.33;;;5.90;;
8293;SDS011;4185;41.506;24.938;2022-12-18T01:15:14;9.10;;;6.03;;
8293;SDS011;4185;41.506;24.938;2022-12-18T01:17:42;11.53;;;6.70;;
8293;SDS011;4185;41.506;24.938;2022-12-18T01:20:10;13.27;;;7.03;;
8293;SDS011;4185;41.506;24.938;2022-12-18T01:22:37;12.23;;;9.40;;
8293;SDS011;4185;41.506;24.938;2022-12-18T01:25:04;14.17;;;8.40;;
8293;SDS011;4185;41.506;24.938;2022-12-18T01:27:33;10.83;;;7.93;;
8293;SDS011;4185;41.506;24.938;2022-12-18T01:30:01;15.53;;;7.23;;
8293;SDS011;4185;41.506;24.938;2022-12-18T01:32:29;9.33;;;6.07;;
8293;SDS011;4185;41.506;24.938;2022-12-18T01:34:56;8.53;;;5.77;;
8293;SDS011;4185;41.506;24.938;2022-12-18T01:37:23;10.60;;;5.80;;
8293;SDS011;4185;41.506;24.938;2022-12-18T01:39:50;10.83;;;6.63;;
8293;SDS011;4185;41.506;24.938;2022-12-18T01:42:19;10.23;;;6.27;;
8293;SDS011;4185;41.506;24.938;2022-12-18T01:44:58;9.07;;;5.90;;
8293;SDS011;4185;41.506;24.938;2022-12-18T01:47:29;8.13;;;5.73;;
8293;SDS011;4185;41.506;24.938;2022-12-18T01:49:59;8.77;;;5.57;;
8293;SDS011;4185;41.506;24.938;2022-12-18T01:52:31;10.80;;;6.13;;
8293;SDS011;4185;41.506;24.938;2022-12-18T01:54:59;9.17;;;6.70;;
8293;SDS011;4185;41.506;24.938;2022-12-18T01:57:27;13.53;;;6.93;;
8293;SDS011;4185;41.506;24.938;2022-12-18T01:59:55;9.33;;;5.93;;
8293;SDS011;4185;41.506;24.938;2022-12-18T02:02:27;14.63;;;8.00;;
8293;SDS011;4185;41.506;24.938;2022-12-18T02:04:56;13.03;;;7.40;;
8293;SDS011;4185;41.506;24.938;2022-12-18T02:07:24;12.73;;;6.17;;
8293;SDS011;4185;41.506;24.938;2022-12-18T02:10:02;7.70;;;5.63;;
8293;SDS011;4185;41.506;24.938;2022-12-18T02:12:35;9.30;;;5.23;;
8293;SDS011;4185;41.506;24.938;2022-12-18T02:15:12;9.53;;;5.97;;
8293;SDS011;4185;41.506;24.938;2022-12-18T02:17:47;8.33;;;6.07;;
8293;SDS011;4185;41.506;24.938;2022-12-18T02:20:20;9.73;;;5.90;;
8293;SDS011;4185;41.506;24.938;2022-12-18T02:23:01;8.93;;;5.83;;
8293;SDS011;4185;41.506;24.938;2022-12-18T02:25:40;11.53;;;6.93;;
8293;SDS011;4185;41.506;24.938;2022-12-18T02:28:28;8.50;;;6.03;;
8293;SDS011;4185;41.506;24.938;2022-12-18T02:30:59;7.67;;;6.13;;
8293;SDS011;4185;41.506;24.938;2022-12-18T02:33:29;15.27;;;6.90;;
8293;SDS011;4185;41.506;24.938;2022-12-18T02:35:57;9.07;;;5.73;;
8293;SDS011;4185;41.506;24.938;2022-12-18T02:38:26;9.83;;;5.97;;
8293;SDS011;4185;41.506;24.938;2022-12-18T02:40:56;9.80;;;5.50;;
8293;SDS011;4185;41.506;24.938;2022-12-18T02:43:24;8.23;;;5.70;;
8293;SDS011;4185;41.506;24.938;2022-12-18T02:45:52;12.87;;;7.40;;
8293;SDS011;4185;41.506;24.938;2022-12-18T02:48:22;10.80;;;7.60;;
8293;SDS011;4185;41.506;24.938;2022-12-18T02:50:51;10.50;;;7.23;;
8293;SDS011;4185;41.506;24.938;2022-12-18T02:53:26;14.30;;;8.17;;
8293;SDS011;4185;41.506;24.938;2022-12-18T02:56:01;11.27;;;7.20;;
8293;SDS011;4185;41.506;24.938;2022-12-18T02:58:34;15.20;;;8.00;;
8293;SDS011;4185;41.506;24.938;2022-12-18T03:01:12;11.50;;;7.40;;
8293;SDS011;4185;41.506;24.938;2022-12-18T03:03:45;12.97;;;9.17;;
8293;SDS011;4185;41.506;24.938;2022-12-18T03:06:18;17.03;;;10.27;;
8293;SDS011;4185;41.506;24.938;2022-12-18T03:08:49;16.57;;;11.60;;
8293;SDS011;4185;41.506;24.938;2022-12-18T03:11:21;14.87;;;10.67;;
8293;SDS011;4185;41.506;24.938;2022-12-18T03:14:04;17.90;;;9.90;;
8293;SDS011;4185;41.506;24.938;2022-12-18T03:16:33;15.80;;;10.57;;
8293;SDS011;4185;41.506;24.938;2022-12-18T03:19:03;13.33;;;8.77;;
8293;SDS011;4185;41.506;24.938;2022-12-18T03:21:33;15.37;;;8.60;;
8293;SDS011;4185;41.506;24.938;2022-12-18T03:24:03;11.17;;;7.87;;
8293;SDS011;4185;41.506;24.938;2022-12-18T03:26:35;10.87;;;7.23;;
8293;SDS011;4185;41.506;24.938;2022-12-18T03:29:07;11.10;;;8.03;;
8293;SDS011;4185;41.506;24.938;2022-12-18T03:31:36;12.10;;;8.00;;
8293;SDS011;4185;41.506;24.938;2022-12-18T03:34:08;9.00;;;6.80;;
8293;SDS011;4185;41.506;24.938;2022-12-18T03:36:39;8.43;;;5.97;;
8293;SDS011;4185;41.506;24.938;2022-12-18T03:39:06;12.43;;;6.73;;
8293;SDS011;4185;41.506;24.938;2022-12-18T03:41:37;5.20;;;4.57;;
8293;SDS011;4185;41.506;24.938;2022-12-18T03:44:11;6.83;;;5.10;;
8293;SDS011;4185;41.506;24.938;2022-12-18T03:46:42;14.20;;;6.37;;
8293;SDS011;4185;41.506;24.938;2022-12-18T03:49:19;15.50;;;6.57;;
8293;SDS011;4185;41.506;24.938;2022-12-18T03:51:52;8.63;;;6.03;;
8293;SDS011;4185;41.506;24.938;2022-12-18T03:54:26;17.53;;;7.10;;
8293;SDS011;4185;41.506;24.938;2022-12-18T03:56:58;12.70;;;7.07;;
8293;SDS011;4185;41.506;24.938;2022-12-18T03:59:29;15.63;;;7.90;;
8293;SDS011;4185;41.506;24.938;2022-12-18T04:01:57;16.07;;;7.30;;
8293;SDS011;4185;41.506;24.938;2022-12-18T04:04:26;21.10;;;7.80;;
8293;SDS011;4185;41.506;24.938;2022-12-18T04:06:55;21.13;;;8.67;;
8293;SDS011;4185;41.506;24.938;2022-12-18T04:09:23;31.97;;;12.30;;
8293;SDS011;4185;41.506;24.938;2022-12-18T04:11:51;27.00;;;11.77;;
8293;SDS011;4185;41.506;24.938;2022-12-18T04:14:19;24.03;;;12.97;;
8293;SDS011;4185;41.506;24.938;2022-12-18T04:16:46;25.60;;;13.37;;
8293;SDS011;4185;41.506;24.938;2022-12-18T04:19:13;27.37;;;12.43;;
8293;SDS011;4185;41.506;24.938;2022-12-18T04:21:40;24.40;;;12.50;;
8293;SDS011;4185;41.506;24.938;2022-12-18T04:24:06;25.83;;;12.60;;
8293;SDS011;4185;41.506;24.938;2022-12-18T04:26:34;19.20;;;10.63;;
8293;SDS011;4185;41.506;24.938;2022-12-18T04:29:00;20.57;;;10.47;;
8293;SDS011;4185;41.506;24.938;2022-12-18T04:31:29;20.60;;;10.53;;
8293;SDS011;4185;41.506;24.938;2022-12-18T04:33:56;21.33;;;11.23;;
8293;SDS011;4185;41.506;24.938;2022-12-18T04:36:22;20.37;;;11.50;;
8293;SDS011;4185;41.506;24.938;2022-12-18T04:38:49;30.20;;;15.07;;
8293;SDS011;4185;41.506;24.938;2022-12-18T04:41:16;30.77;;;16.70;;
8293;SDS011;4185;41.506;24.938;2022-12-18T04:43:43;32.10;;;15.03;;
8293;SDS011;4185;41.506;24.938;2022-12-18T04:46:09;24.23;;;13.20;;
8293;SDS011;4185;41.506;24.938;2022-12-18T04:48:38;21.30;;;11.77;;
8293;SDS011;4185;41.506;24.938;2022-12-18T04:51:05;19.70;;;12.13;;
8293;SDS011;4185;41.506;24.938;2022-12-18T04:53:32;28.77;;;16.40;;
8293;SDS011;4185;41.506;24.938;2022-12-18T04:56:03;28.00;;;14.93;;
8293;SDS011;4185;41.506;24.938;2022-12-18T04:58:31;27.43;;;14.90;;
8293;SDS011;4185;41.506;24.938;2022-12-18T05:00:58;21.13;;;12.80;;
8293;SDS011;4185;41.506;24.938;2022-12-18T05:03:25;13.33;;;9.00;;
8293;SDS011;4185;41.506;24.938;2022-12-18T05:05:53;13.10;;;7.93;;
8293;SDS011;4185;41.506;24.938;2022-12-18T05:08:20;12.97;;;8.07;;
8293;SDS011;4185;41.506;24.938;2022-12-18T05:10:46;13.73;;;8.83;;
8293;SDS011;4185;41.506;24.938;2022-12-18T05:13:13;14.30;;;8.80;;
8293;SDS011;4185;41.506;24.938;2022-12-18T05:15:40;14.47;;;7.60;;
8293;SDS011;4185;41.506;24.938;2022-12-18T05:18:07;15.23;;;8.70;;
8293;SDS011;4185;41.506;24.938;2022-12-18T05:20:34;24.37;;;13.60;;
8293;SDS011;4185;41.506;24.938;2022-12-18T05:23:03;20.30;;;12.53;;
8293;SDS011;4185;41.506;24.938;2022-12-18T05:25:29;19.63;;;10.70;;
8293;SDS011;4185;41.506;24.938;2022-12-18T05:27:56;11.27;;;5.97;;
8293;SDS011;4185;41.506;24.938;2022-12-18T05:30:23;12.27;;;7.03;;
8293;SDS011;4185;41.506;24.938;2022-12-18T05:32:50;14.73;;;7.23;;
8293;SDS011;4185;41.506;24.938;2022-12-18T05:35:16;14.87;;;9.17;;
8293;SDS011;4185;41.506;24.938;2022-12-18T05:37:43;9.30;;;7.40;;
8293;SDS011;4185;41.506;24.938;2022-12-18T05:40:12;17.03;;;9.73;;
8293;SDS011;4185;41.506;24.938;2022-12-18T05:42:39;12.00;;;8.03;;
8293;SDS011;4185;41.506;24.938;2022-12-18T05:45:06;12.87;;;8.37;;
8293;SDS011;4185;41.506;24.938;2022-12-18T05:47:33;11.07;;;7.73;;
8293;SDS011;4185;41.506;24.938;2022-12-18T05:50:00;13.20;;;9.80;;
8293;SDS011;4185;41.506;24.938;2022-12-18T05:52:27;19.70;;;12.27;;
8293;SDS011;4185;41.506;24.938;2022-12-18T05:54:54;13.27;;;8.30;;
8293;SDS011;4185;41.506;24.938;2022-12-18T05:57:22;11.10;;;6.90;;
8293;SDS011;4185;41.506;24.938;2022-12-18T05:59:49;10.53;;;6.30;;
8293;SDS011;4185;41.506;24.938;2022-12-18T06:02:15;12.37;;;8.80;;
8293;SDS011;4185;41.506;24.938;2022-12-18T06:04:42;17.77;;;8.77;;
8293;SDS011;4185;41.506;24.938;2022-12-18T06:07:09;15.17;;;9.50;;
8293;SDS011;4185;41.506;24.938;2022-12-18T06:09:36;13.67;;;8.93;;
8293;SDS011;4185;41.506;24.938;2022-12-18T06:12:03;15.23;;;9.63;;
8293;SDS011;4185;41.506;24.938;2022-12-18T06:14:31;13.90;;;8.90;;
8293;SDS011;4185;41.506;24.938;2022-12-18T06:16:58;18.47;;;11.67;;
8293;SDS011;4185;41.506;24.938;2022-12-18T06:19:25;11.33;;;7.97;;
8293;SDS011;4185;41.506;24.938;2022-12-18T06:21:51;14.40;;;9.13;;
8293;SDS011;4185;41.506;24.938;2022-12-18T06:24:18;11.00;;;8.20;;
8293;SDS011;4185;41.506;24.938;2022-12-18T06:26:45;8.90;;;6.83;;
8293;SDS011;4185;41.506;24.938;2022-12-18T06:29:12;10.57;;;7.60;;
8293;SDS011;4185;41.506;24.938;2022-12-18T06:31:40;13.80;;;7.20;;
8293;SDS011;4185;41.506;24.938;2022-12-18T06:34:07;8.37;;;6.33;;
8293;SDS011;4185;41.506;24.938;2022-12-18T06:36:33;10.63;;;6.70;;
8293;SDS011;4185;41.506;24.938;2022-12-18T06:39:00;40.67;;;21.60;;
8293;SDS011;4185;41.506;24.938;2022-12-18T06:41:27;33.40;;;18.43;;
8293;SDS011;4185;41.506;24.938;2022-12-18T06:43:54;19.63;;;12.90;;
8293;SDS011;4185;41.506;24.938;2022-12-18T06:46:20;16.10;;;9.10;;
8293;SDS011;4185;41.506;24.938;2022-12-18T06:48:49;10.20;;;6.47;;
8293;SDS011;4185;41.506;24.938;2022-12-18T06:51:17;10.43;;;6.60;;
8293;SDS011;4185;41.506;24.938;2022-12-18T06:53:45;11.60;;;7.43;;
8293;SDS011;4185;41.506;24.938;2022-12-18T06:56:12;12.93;;;7.80;;
8293;SDS011;4185;41.506;24.938;2022-12-18T06:58:39;23.97;;;14.47;;
8293;SDS011;4185;41.506;24.938;2022-12-18T07:01:07;26.83;;;17.50;;
8293;SDS011;4185;41.506;24.938;2022-12-18T07:03:35;28.23;;;19.47;;
8293;SDS011;4185;41.506;24.938;2022-12-18T07:06:03;42.13;;;22.90;;
8293;SDS011;4185;41.506;24.938;2022-12-18T07:08:31;38.37;;;24.70;;
8293;SDS011;4185;41.506;24.938;2022-12-18T07:10:58;70.37;;;38.03;;
8293;SDS011;4185;41.506;24.938;2022-12-18T07:13:25;36.53;;;23.03;;
8293;SDS011;4185;41.506;24.938;2022-12-18T07:15:52;33.00;;;19.57;;
8293;SDS011;4185;41.506;24.938;2022-12-18T07:18:19;25.37;;;14.60;;
8293;SDS011;4185;41.506;24.938;2022-12-18T07:20:46;49.93;;;31.83;;
8293;SDS011;4185;41.506;24.938;2022-12-18T07:23:14;48.73;;;30.40;;
8293;SDS011;4185;41.506;24.938;2022-12-18T07:25:40;37.77;;;23.77;;
8293;SDS011;4185;41.506;24.938;2022-12-18T07:28:07;24.90;;;16.53;;
8293;SDS011;4185;41.506;24.938;2022-12-18T07:30:36;19.93;;;11.93;;
8293;SDS011;4185;41.506;24.938;2022-12-18T07:33:03;16.70;;;9.43;;
8293;SDS011;4185;41.506;24.938;2022-12-18T07:35:30;13.30;;;8.90;;
8293;SDS011;4185;41.506;24.938;2022-12-18T07:37:57;10.57;;;7.50;;
8293;SDS011;4185;41.506;24.938;2022-12-18T07:40:25;13.47;;;8.87;;
8293;SDS011;4185;41.506;24.938;2022-12-18T07:42:52;13.20;;;8.00;;
8293;SDS011;4185;41.506;24.938;2022-12-18T07:45:19;11.00;;;7.23;;
8293;SDS011;4185;41.506;24.938;2022-12-18T07:47:45;14.57;;;7.10;;
8293;SDS011;4185;41.506;24.938;2022-12-18T07:50:12;13.97;;;7.83;;
8293;SDS011;4185;41.506;24.938;2022-12-18T07:52:39;23.00;;;11.07;;
8293;SDS011;4185;41.506;24.938;2022-12-18T07:55:06;20.57;;;12.03;;
8293;SDS011;4185;41.506;24.938;2022-12-18T07:57:35;14.87;;;8.23;;
8293;SDS011;4185;41.506;24.938;2022-12-18T08:00:02;15.43;;;8.67;;
8293;SDS011;4185;41.506;24.938;2022-12-18T08:02:30;15.93;;;7.87;;
8293;SDS011;4185;41.506;24.938;2022-12-18T08:04:57;10.07;;;6.80;;
8293;SDS011;4185;41.506;24.938;2022-12-18T08:07:24;13.23;;;7.30;;
8293;SDS011;4185;41.506;24.938;2022-12-18T08:09:51;11.37;;;7.00;;
8293;SDS011;4185;41.506;24.938;2022-12-18T08:12:17;10.70;;;7.43;;
8293;SDS011;4185;41.506;24.938;2022-12-18T08:14:46;14.10;;;8.17;;
8293;SDS011;4185;41.506;24.938;2022-12-18T08:17:12;12.40;;;7.53;;
8293;SDS011;4185;41.506;24.938;2022-12-18T08:19:39;18.53;;;10.37;;
8293;SDS011;4185;41.506;24.938;2022-12-18T08:22:06;10.90;;;7.43;;
8293;SDS011;4185;41.506;24.938;2022-12-18T08:24:33;12.87;;;7.37;;
8293;SDS011;4185;41.506;24.938;2022-12-18T08:27:00;12.87;;;7.83;;
8293;SDS011;4185;41.506;24.938;2022-12-18T08:29:26;12.27;;;8.70;;
8293;SDS011;4185;41.506;24.938;2022-12-18T08:31:54;16.77;;;10.23;;
8293;SDS011;4185;41.506;24.938;2022-12-18T08:34:21;13.73;;;7.73;;
8293;SDS011;4185;41.506;24.938;2022-12-18T08:36:48;12.57;;;8.20;;
8293;SDS011;4185;41.506;24.938;2022-12-18T08:39:15;17.87;;;10.00;;
8293;SDS011;4185;41.506;24.938;2022-12-18T08:41:41;15.77;;;9.00;;
8293;SDS011;4185;41.506;24.938;2022-12-18T08:44:28;22.43;;;13.50;;
8293;SDS011;4185;41.506;24.938;2022-12-18T08:47:04;17.73;;;9.67;;
8293;SDS011;4185;41.506;24.938;2022-12-18T08:49:32;30.00;;;17.27;;
8293;SDS011;4185;41.506;24.938;2022-12-18T08:51:59;25.50;;;14.73;;
8293;SDS011;4185;41.506;24.938;2022-12-18T08:54:26;28.03;;;13.27;;
8293;SDS011;4185;41.506;24.938;2022-12-18T08:56:53;24.03;;;13.33;;
8293;SDS011;4185;41.506;24.938;2022-12-18T08:59:20;34.43;;;24.10;;
8293;SDS011;4185;41.506;24.938;2022-12-18T09:01:48;29.50;;;16.47;;
8293;SDS011;4185;41.506;24.938;2022-12-18T09:04:16;20.00;;;11.60;;
8293;SDS011;4185;41.506;24.938;2022-12-18T09:06:43;68.13;;;41.17;;
8293;SDS011;4185;41.506;24.938;2022-12-18T09:09:10;32.03;;;19.73;;
8293;SDS011;4185;41.506;24.938;2022-12-18T09:11:36;24.13;;;12.53;;
8293;SDS011;4185;41.506;24.938;2022-12-18T09:14:03;22.90;;;9.87;;
8293;SDS011;4185;41.506;24.938;2022-12-18T09:16:30;43.90;;;23.30;;
8293;SDS011;4185;41.506;24.938;2022-12-18T09:19:00;48.27;;;28.73;;
8293;SDS011;4185;41.506;24.938;2022-12-18T09:21:31;27.60;;;17.63;;
8293;SDS011;4185;41.506;24.938;2022-12-18T09:23:59;25.60;;;14.77;;
8293;SDS011;4185;41.506;24.938;2022-12-18T09:26:26;20.57;;;11.50;;
8293;SDS011;4185;41.506;24.938;2022-12-18T09:28:53;24.40;;;14.13;;
8293;SDS011;4185;41.506;24.938;2022-12-18T09:31:22;26.83;;;17.83;;
8293;SDS011;4185;41.506;24.938;2022-12-18T09:33:49;25.07;;;15.53;;
8293;SDS011;4185;41.506;24.938;2022-12-18T09:36:17;30.07;;;20.70;;
8293;SDS011;4185;41.506;24.938;2022-12-18T09:38:45;39.77;;;22.40;;
8293;SDS011;4185;41.506;24.938;2022-12-18T09:41:17;39.17;;;21.63;;
8293;SDS011;4185;41.506;24.938;2022-12-18T09:43:58;19.07;;;12.27;;
8293;SDS011;4185;41.506;24.938;2022-12-18T09:46:30;25.67;;;14.80;;
8293;SDS011;4185;41.506;24.938;2022-12-18T09:49:01;18.97;;;12.83;;
8293;SDS011;4185;41.506;24.938;2022-12-18T09:51:34;23.83;;;11.70;;
8293;SDS011;4185;41.506;24.938;2022-12-18T09:54:10;14.80;;;7.20;;
8293;SDS011;4185;41.506;24.938;2022-12-18T09:56:40;9.63;;;6.27;;
8293;SDS011;4185;41.506;24.938;2022-12-18T09:59:14;11.80;;;7.83;;
8293;SDS011;4185;41.506;24.938;2022-12-18T10:01:46;12.47;;;7.43;;
8293;SDS011;4185;41.506;24.938;2022-12-18T10:04:13;14.13;;;7.90;;
8293;SDS011;4185;41.506;24.938;2022-12-18T10:06:43;11.97;;;7.83;;
8293;SDS011;4185;41.506;24.938;2022-12-18T10:09:17;13.83;;;8.00;;
8293;SDS011;4185;41.506;24.938;2022-12-18T10:11:53;13.47;;;6.30;;
8293;SDS011;4185;41.506;24.938;2022-12-18T10:14:30;13.33;;;7.53;;
8293;SDS011;4185;41.506;24.938;2022-12-18T10:17:05;18.93;;;11.47;;
8293;SDS011;4185;41.506;24.938;2022-12-18T10:19:42;11.43;;;7.50;;
8293;SDS011;4185;41.506;24.938;2022-12-18T10:25:05;16.27;;;9.60;;
8293;SDS011;4185;41.506;24.938;2022-12-18T10:27:43;16.27;;;9.33;;
8293;SDS011;4185;41.506;24.938;2022-12-18T10:30:12;10.97;;;7.23;;
8293;SDS011;4185;41.506;24.938;2022-12-18T10:32:40;13.53;;;7.73;;
8293;SDS011;4185;41.506;24.938;2022-12-18T10:35:08;15.90;;;8.93;;
8293;SDS011;4185;41.506;24.938;2022-12-18T10:40:33;14.93;;;9.90;;
8293;SDS011;4185;41.506;24.938;2022-12-18T10:43:15;12.67;;;8.87;;
8293;SDS011;4185;41.506;24.938;2022-12-18T10:45:57;14.83;;;8.10;;
8293;SDS011;4185;41.506;24.938;2022-12-18T10:48:26;13.50;;;8.30;;
8293;SDS011;4185;41.506;24.938;2022-12-18T10:50:54;14.03;;;7.70;;
8293;SDS011;4185;41.506;24.938;2022-12-18T10:53:22;16.23;;;10.43;;
8293;SDS011;4185;41.506;24.938;2022-12-18T10:55:51;15.80;;;10.03;;
8293;SDS011;4185;41.506;24.938;2022-12-18T10:58:21;22.10;;;12.70;;
8293;SDS011;4185;41.506;24.938;2022-12-18T11:01:01;17.23;;;11.27;;
8293;SDS011;4185;41.506;24.938;2022-12-18T11:03:33;30.00;;;16.30;;
8293;SDS011;4185;41.506;24.938;2022-12-18T11:06:04;20.20;;;11.67;;
8293;SDS011;4185;41.506;24.938;2022-12-18T11:08:32;31.73;;;17.63;;
8293;SDS011;4185;41.506;24.938;2022-12-18T11:11:01;22.77;;;13.63;;
8293;SDS011;4185;41.506;24.938;2022-12-18T11:13:29;13.30;;;9.30;;
8293;SDS011;4185;41.506;24.938;2022-12-18T11:15:57;28.17;;;17.27;;
8293;SDS011;4185;41.506;24.938;2022-12-18T11:18:26;22.07;;;12.90;;
8293;SDS011;4185;41.506;24.938;2022-12-18T11:20:56;13.10;;;9.50;;
8293;SDS011;4185;41.506;24.938;2022-12-18T11:23:26;20.03;;;13.20;;
8293;SDS011;4185;41.506;24.938;2022-12-18T11:25:54;27.43;;;16.67;;
8293;SDS011;4185;41.506;24.938;2022-12-18T11:28:29;27.27;;;18.70;;
8293;SDS011;4185;41.506;24.938;2022-12-18T11:33:46;23.17;;;13.67;;
8293;SDS011;4185;41.506;24.938;2022-12-18T11:36:20;22.50;;;13.53;;
8293;SDS011;4185;41.506;24.938;2022-12-18T11:38:48;25.47;;;14.63;;
8293;SDS011;4185;41.506;24.938;2022-12-18T11:41:19;25.77;;;16.10;;
8293;SDS011;4185;41.506;24.938;2022-12-18T11:44:18;21.10;;;13.60;;
8293;SDS011;4185;41.506;24.938;2022-12-18T11:46:51;21.23;;;12.73;;
8293;SDS011;4185;41.506;24.938;2022-12-18T11:49:22;18.57;;;10.73;;
8293;SDS011;4185;41.506;24.938;2022-12-18T11:51:55;22.57;;;14.37;;
8293;SDS011;4185;41.506;24.938;2022-12-18T11:54:27;21.20;;;11.47;;
8293;SDS011;4185;41.506;24.938;2022-12-18T11:56:55;28.10;;;17.77;;
8293;SDS011;4185;41.506;24.938;2022-12-18T11:59:29;16.77;;;11.57;;
8293;SDS011;4185;41.506;24.938;2022-12-18T12:02:04;16.83;;;9.90;;
8293;SDS011;4185;41.506;24.938;2022-12-18T12:04:58;15.27;;;8.17;;
8293;SDS011;4185;41.506;24.938;2022-12-18T12:07:42;20.20;;;11.90;;
8293;SDS011;4185;41.506;24.938;2022-12-18T12:10:19;20.37;;;9.67;;
8293;SDS011;4185;41.506;24.938;2022-12-18T12:12:59;11.07;;;6.80;;
8293;SDS011;4185;41.506;24.938;2022-12-18T12:15:39;12.83;;;8.60;;
8293;SDS011;4185;41.506;24.938;2022-12-18T12:18:16;13.73;;;9.60;;
8293;SDS011;4185;41.506;24.938;2022-12-18T12:20:56;23.87;;;16.00;;
8293;SDS011;4185;41.506;24.938;2022-12-18T12:23:34;14.23;;;9.90;;
8293;SDS011;4185;41.506;24.938;2022-12-18T12:26:09;17.13;;;12.10;;
8293;SDS011;4185;41.506;24.938;2022-12-18T12:28:47;21.40;;;13.00;;
8293;SDS011;4185;41.506;24.938;2022-12-18T12:31:30;11.97;;;8.20;;
8293;SDS011;4185;41.506;24.938;2022-12-18T12:34:09;11.67;;;8.13;;
8293;SDS011;4185;41.506;24.938;2022-12-18T12:36:49;9.90;;;6.97;;
8293;SDS011;4185;41.506;24.938;2022-12-18T12:39:28;9.70;;;5.73;;
8293;SDS011;4185;41.506;24.938;2022-12-18T12:41:59;10.80;;;6.80;;
8293;SDS011;4185;41.506;24.938;2022-12-18T12:44:45;11.33;;;7.47;;
8293;SDS011;4185;41.506;24.938;2022-12-18T12:47:20;19.57;;;11.13;;
8293;SDS011;4185;41.506;24.938;2022-12-18T12:49:52;15.37;;;9.40;;
8293;SDS011;4185;41.506;24.938;2022-12-18T12:52:23;15.20;;;8.80;;
8293;SDS011;4185;41.506;24.938;2022-12-18T12:54:54;13.27;;;8.47;;
8293;SDS011;4185;41.506;24.938;2022-12-18T12:57:23;10.90;;;7.60;;
8293;SDS011;4185;41.506;24.938;2022-12-18T12:59:58;10.97;;;7.13;;
8293;SDS011;4185;41.506;24.938;2022-12-18T13:02:31;18.20;;;11.97;;
8293;SDS011;4185;41.506;24.938;2022-12-18T13:05:02;13.93;;;10.17;;
8293;SDS011;4185;41.506;24.938;2022-12-18T13:07:37;18.60;;;11.73;;
8293;SDS011;4185;41.506;24.938;2022-12-18T13:12:58;9.13;;;6.07;;
8293;SDS011;4185;41.506;24.938;2022-12-18T13:15:26;5.73;;;4.80;;
8293;SDS011;4185;41.506;24.938;2022-12-18T13:18:04;9.47;;;6.83;;
8293;SDS011;4185;41.506;24.938;2022-12-18T13:20:38;13.93;;;9.57;;
8293;SDS011;4185;41.506;24.938;2022-12-18T13:23:19;10.90;;;7.73;;
8293;SDS011;4185;41.506;24.938;2022-12-18T13:25:55;16.20;;;14.47;;
8293;SDS011;4185;41.506;24.938;2022-12-18T13:28:23;9.00;;;6.37;;
8293;SDS011;4185;41.506;24.938;2022-12-18T13:31:11;7.10;;;5.17;;
8293;SDS011;4185;41.506;24.938;2022-12-18T13:33:40;14.90;;;10.80;;
8293;SDS011;4185;41.506;24.938;2022-12-18T13:36:12;13.67;;;7.87;;
8293;SDS011;4185;41.506;24.938;2022-12-18T13:38:41;11.20;;;8.10;;
8293;SDS011;4185;41.506;24.938;2022-12-18T13:43:53;12.73;;;8.73;;
8293;SDS011;4185;41.506;24.938;2022-12-18T13:46:24;10.20;;;7.73;;
8293;SDS011;4185;41.506;24.938;2022-12-18T13:48:57;20.47;;;14.33;;
8293;SDS011;4185;41.506;24.938;2022-12-18T13:51:26;13.57;;;8.73;;
8293;SDS011;4185;41.506;24.938;2022-12-18T13:53:55;22.13;;;13.70;;
8293;SDS011;4185;41.506;24.938;2022-12-18T13:56:26;12.63;;;8.53;;
8293;SDS011;4185;41.506;24.938;2022-12-18T13:59:05;16.67;;;12.23;;
8293;SDS011;4185;41.506;24.938;2022-12-18T14:01:41;13.67;;;8.27;;
8293;SDS011;4185;41.506;24.938;2022-12-18T14:04:12;12.40;;;8.10;;
8293;SDS011;4185;41.506;24.938;2022-12-18T14:06:45;15.83;;;12.00;;
8293;SDS011;4185;41.506;24.938;2022-12-18T14:09:13;6.50;;;5.27;;
8293;SDS011;4185;41.506;24.938;2022-12-18T14:11:45;9.00;;;6.63;;
8293;SDS011;4185;41.506;24.938;2022-12-18T14:14:13;8.77;;;5.43;;
8293;SDS011;4185;41.506;24.938;2022-12-18T14:16:42;8.30;;;6.40;;
8293;SDS011;4185;41.506;24.938;2022-12-18T14:19:12;5.47;;;4.47;;
8293;SDS011;4185;41.506;24.938;2022-12-18T14:21:45;8.63;;;7.03;;
8293;SDS011;4185;41.506;24.938;2022-12-18T14:24:13;9.90;;;6.50;;
8293;SDS011;4185;41.506;24.938;2022-12-18T14:26:41;11.47;;;8.13;;
8293;SDS011;4185;41.506;24.938;2022-12-18T14:29:18;10.80;;;7.73;;
8293;SDS011;4185;41.506;24.938;2022-12-18T14:34:34;9.60;;;7.13;;
8293;SDS011;4185;41.506;24.938;2022-12-18T14:37:01;7.23;;;5.77;;
8293;SDS011;4185;41.506;24.938;2022-12-18T14:39:28;9.60;;;6.70;;
8293;SDS011;4185;41.506;24.938;2022-12-18T14:41:55;12.00;;;7.27;;
8293;SDS011;4185;41.506;24.938;2022-12-18T14:44:21;13.60;;;8.00;;
8293;SDS011;4185;41.506;24.938;2022-12-18T14:46:48;9.67;;;6.37;;
8293;SDS011;4185;41.506;24.938;2022-12-18T14:49:21;14.70;;;9.17;;
8293;SDS011;4185;41.506;24.938;2022-12-18T14:51:53;16.03;;;9.83;;
8293;SDS011;4185;41.506;24.938;2022-12-18T14:54:22;14.27;;;9.07;;
8293;SDS011;4185;41.506;24.938;2022-12-18T14:56:59;19.73;;;12.77;;
8293;SDS011;4185;41.506;24.938;2022-12-18T14:59:28;12.03;;;8.40;;
8293;SDS011;4185;41.506;24.938;2022-12-18T15:01:58;12.77;;;9.00;;
8293;SDS011;4185;41.506;24.938;2022-12-18T15:04:28;14.07;;;9.43;;
8293;SDS011;4185;41.506;24.938;2022-12-18T15:07:04;13.20;;;8.47;;
8293;SDS011;4185;41.506;24.938;2022-12-18T15:09:35;13.77;;;8.93;;
8293;SDS011;4185;41.506;24.938;2022-12-18T15:12:04;12.67;;;8.80;;
8293;SDS011;4185;41.506;24.938;2022-12-18T15:14:35;11.70;;;7.47;;
8293;SDS011;4185;41.506;24.938;2022-12-18T15:17:12;19.20;;;11.77;;
8293;SDS011;4185;41.506;24.938;2022-12-18T15:19:42;18.67;;;12.30;;